Swatara, MN

11:02 AM CDT on July 23, 2016 (GMT -0500)
Sunny Beach Road | | Change Station
Active Advisory: Flash Flood Watch

Elev 1280 ft 47.16 °N, 93.52 °W | Updated 3 minutes ago

Clear
Clear
80.8 °F
Feels Like 84 °F
N
0.0
Wind Variable Wind from West

Today
High -- | Low -- °F
--% Chance of Precip.
Yesterday
High -- | Low -- °F
Precip. -- in
Pressure 29.87 in
Visibility 9.0 miles
Clouds Clear
Heat Index 84 °F
Dew Point 68 °F
Humidity 65%
Rainfall 0.00 in
Snow Depth Not available.
5:43 AM 8:57 PM
Waning Gibbous, 84% visible
METAR KGPZ 231556Z AUTO VRB03KT 9SM CLR 26/18 A2988 RMK AO2 SLP114 T02610183
Pressure 29.87 in
Visibility 9.0 miles
Clouds Clear
Heat Index 84 °F
Dew Point 68 °F
Humidity 65%
Rainfall 0.00 in
Snow Depth Not available.
5:43 AM 8:57 PM
Waning Gibbous, 84% visible
METAR KGPZ 231556Z AUTO VRB03KT 9SM CLR 26/18 A2988 RMK AO2 SLP114 T02610183

10-Day Weather Forecast

Almanac

Astronomy

Jul. 23, 2016 Rise Set
Actual Time
Civil Twilight
Nautical Twilight
Astronomical Twilight
Moon
Length of Visible Light
Length of Day
Tomorrow will be .
, % of the Moon is Illuminated

Today's Extremes

State Highs State Lows

Community

WunderPhotos

Upload Photos

1,926,857 photos uploaded!

WunderBlog® & News

Nearby

Air Quality

  Air Quality AQ Index Pollutant
Not available.

Snow Depth

Station Depth Elevation

Earthquake Activity

City Distance Mag. Time & Date
Minimum magnitude displayed is 2.5.

Coastal Water Temperatures

Place Temperature

Stations

Nearby Weather Stations

Station Location Temp. Windchill Dew Point Humidity Wind Precip. Elev Updated Type
                   

Watches & Warnings

Flash Flood Watch
Issued: 4:13 AM CDT Jul. 23, 2016 – National Weather Service

... Flash Flood Watch remains in effect from noon CDT today
through Sunday morning...

The Flash Flood Watch continues for

* portions of Minnesota and Wisconsin... including the following
areas... in Minnesota... Carlton/south St. Louis... Crow Wing...
North Cass... northern Aitkin... Pine... south Aitkin... south
Cass and South Itasca. In Wisconsin... Ashland... Bayfield...
Burnett... Douglas... Iron... price... Sawyer and Washburn.

* From noon CDT today through early Sunday morning

* widespread thunderstorms and heavy rainfall are possible
beginning this afternoon and continuing through early Sunday
morning along a warm front across central Minnesota.

Precautionary/preparedness actions...

A Flash Flood Watch means that conditions may develop that lead
to flash flooding. Flash flooding is a very dangerous situation.

Monitor the latest forecasts and be prepared to take action
should flash flood warnings be issued.